Time;durP1;ratioP1;P1;durP2;ratioP2;P2;SDS_P1;SDS_P2;PMS_P1;PMS_P2;Temp;Humidity;BMP_temperature;BMP_pressure;BME280_temperature;BME280_humidity;BME280_pressure;Samples;Min_cycle;Max_cycle;Signal;HPM_P1;HPM_P2
2021/10/01 00:07:19;;;;;;;1.02;0.50;;;16.70;67.20;;;;;;20813959;28;20373;-74
2021/10/01 00:17:19;;;;;;;0.77;0.40;;;16.70;67.20;;;;;;20813323;28;20400;-74
2021/10/01 00:27:20;;;;;;;1.25;0.70;;;16.70;67.20;;;;;;20828500;28;20049;-73
2021/10/01 00:37:21;;;;;;;0.52;0.40;;;16.60;67.10;;;;;;20811746;28;20033;-74
2021/10/01 00:47:22;;;;;;;1.58;0.30;;;16.60;67.20;;;;;;20811992;28;20046;-74
2021/10/01 00:57:22;;;;;;;2.92;0.50;;;16.60;67.20;;;;;;20793665;28;20044;-73
2021/10/01 01:07:39;;;;;;;1.30;0.38;;;16.70;67.20;;;;;;20793295;28;20518;-75
2021/10/01 01:18:01;;;;;;;0.90;0.50;;;16.60;67.20;;;;;;20808673;28;20048;-74
2021/10/01 01:28:10;;;;;;;0.95;0.30;;;16.60;67.20;;;;;;20791627;28;20476;-74
2021/10/01 01:38:27;;;;;;;1.85;0.28;;;16.60;67.20;;;;;;20791390;28;20052;-74
2021/10/01 01:48:28;;;;;;;0.95;0.50;;;16.60;67.20;;;;;;20806762;28;20384;-74
2021/10/01 01:58:29;;;;;;;2.78;0.60;;;16.60;67.20;;;;;;20806506;28;20045;-73
2021/10/01 02:08:48;;;;;;;0.43;0.28;;;16.60;67.20;;;;;;20808218;28;20029;-75
2021/10/01 02:18:49;;;;;;;0.43;0.30;;;16.50;67.20;;;;;;20788452;28;20133;-74
2021/10/01 02:28:54;;;;;;;0.30;0.27;;;16.60;67.20;;;;;;20806550;28;20547;-73
2021/10/01 02:38:55;;;;;;;0.60;0.43;;;16.60;67.20;;;;;;20788509;28;20343;-74
2021/10/01 02:48:55;;;;;;;0.57;0.30;;;16.60;67.20;;;;;;20807923;28;20037;-75
2021/10/01 02:59:01;;;;;;;0.70;0.40;;;16.50;67.20;;;;;;20835773;28;20056;-74
2021/10/01 03:09:03;;;;;;;1.80;0.65;;;16.60;67.20;;;;;;20802383;28;20037;-74
2021/10/01 03:19:04;;;;;;;0.82;0.30;;;16.50;67.10;;;;;;20802001;28;20053;-74
2021/10/01 03:29:05;;;;;;;0.95;0.52;;;16.50;67.10;;;;;;20802423;28;20042;-74
2021/10/01 03:39:09;;;;;;;0.80;0.50;;;16.50;67.20;;;;;;20801651;28;20396;-74
2021/10/01 03:49:10;;;;;;;1.95;0.50;;;16.50;67.20;;;;;;20815596;28;20052;-74
2021/10/01 03:59:11;;;;;;;0.47;0.32;;;16.50;67.20;;;;;;20813417;28;20045;-75
2021/10/01 04:09:14;;;;;;;1.05;0.50;;;16.50;67.20;;;;;;20798415;28;20034;-75
2021/10/01 04:19:14;;;;;;;2.10;0.45;;;16.50;67.20;;;;;;20795635;28;20041;-74
2021/10/01 04:29:16;;;;;;;0.88;0.35;;;16.50;67.20;;;;;;20812650;28;20045;-74
2021/10/01 04:39:16;;;;;;;2.10;0.47;;;16.50;67.20;;;;;;20812125;28;20561;-75
2021/10/01 04:49:17;;;;;;;0.55;0.30;;;16.50;67.20;;;;;;20747779;28;20415;-76
2021/10/01 04:59:19;;;;;;;1.02;0.30;;;16.50;67.20;;;;;;20739707;28;20099;-71
2021/10/01 05:09:42;;;;;;;0.35;0.35;;;16.40;67.10;;;;;;20738690;28;20519;-72
2021/10/01 05:20:07;;;;;;;1.05;0.50;;;16.40;67.10;;;;;;20742700;28;20038;-72
2021/10/01 05:30:13;;;;;;;0.52;0.38;;;16.40;67.20;;;;;;20727703;28;20041;-71
2021/10/01 05:40:14;;;;;;;0.95;0.40;;;16.40;67.20;;;;;;20725952;28;20046;-72
2021/10/01 05:50:15;;;;;;;0.88;0.55;;;16.40;67.10;;;;;;20724479;28;20029;-75
2021/10/01 06:00:34;;;;;;;1.30;0.50;;;16.40;67.10;;;;;;20738890;28;20042;-76
2021/10/01 06:10:36;;;;;;;0.70;0.45;;;16.40;67.10;;;;;;20709179;28;20036;-74
2021/10/01 06:20:37;;;;;;;1.45;0.63;;;16.40;67.00;;;;;;20736362;28;20034;-74
2021/10/01 06:30:37;;;;;;;1.15;0.73;;;16.40;67.10;;;;;;20742689;28;20040;-75
2021/10/01 06:40:38;;;;;;;0.95;0.63;;;16.30;67.00;;;;;;20837449;28;20047;-73
2021/10/01 07:22:00;;;;;;;1.13;0.70;;;16.40;67.20;;;;;;20820595;28;20041;-73
2021/10/01 08:23:34;;;;;;;0.80;0.50;;;16.40;67.30;;;;;;20769199;28;20045;-74
2021/10/01 08:33:34;;;;;;;0.87;0.50;;;16.40;67.40;;;;;;20702405;28;20045;-74
2021/10/01 08:43:35;;;;;;;0.57;0.37;;;16.50;67.50;;;;;;20718758;28;20276;-75
2021/10/01 08:53:36;;;;;;;0.57;0.35;;;16.40;67.40;;;;;;20733625;28;20704;-75
2021/10/01 09:03:40;;;;;;;0.73;0.40;;;16.40;67.40;;;;;;20700916;28;20040;-74
2021/10/01 09:13:41;;;;;;;0.40;0.30;;;16.50;67.60;;;;;;20749875;28;20652;-74
2021/10/01 09:23:43;;;;;;;0.63;0.40;;;16.50;67.50;;;;;;20746338;28;20048;-74
2021/10/01 09:33:44;;;;;;;0.30;0.30;;;16.50;67.50;;;;;;20812767;28;20037;-73
2021/10/01 09:43:44;;;;;;;0.43;0.43;;;16.50;67.50;;;;;;20796978;28;20375;-77
2021/10/01 09:53:46;;;;;;;1.15;0.38;;;16.50;67.50;;;;;;20811950;28;20132;-74
2021/10/01 10:03:48;;;;;;;0.40;0.40;;;16.50;67.50;;;;;;20810180;28;20030;-75
2021/10/01 10:13:53;;;;;;;1.85;0.50;;;16.60;67.50;;;;;;20793695;28;20087;-74
2021/10/01 10:23:54;;;;;;;0.65;0.38;;;16.60;67.40;;;;;;20795178;28;20037;-76
2021/10/01 10:33:56;;;;;;;1.02;0.50;;;16.60;67.20;;;;;;21129489;23;20049;-78
2021/10/01 10:43:57;;;;;;;0.40;0.32;;;16.60;67.20;;;;;;20725587;28;20040;-79
2021/10/01 10:54:06;;;;;;;1.23;0.40;;;16.60;67.30;;;;;;20708425;28;20548;-81
2021/10/01 11:04:23;;;;;;;3.15;0.57;;;16.60;67.40;;;;;;20725166;28;20034;-82
2021/10/01 11:14:25;;;;;;;0.25;0.20;;;16.60;67.50;;;;;;20718068;28;20392;-76
2021/10/01 11:24:26;;;;;;;0.68;0.40;;;16.60;67.60;;;;;;20723272;28;20117;-77
2021/10/01 11:34:40;;;;;;;1.00;0.30;;;16.60;67.70;;;;;;20722104;28;20173;-78
2021/10/01 11:44:40;;;;;;;0.35;0.30;;;16.70;67.80;;;;;;20722285;28;20463;-79
2021/10/01 11:54:57;;;;;;;0.60;0.25;;;16.70;67.90;;;;;;20720064;28;20181;-79
2021/10/01 12:05:17;;;;;;;0.13;0.13;;;16.70;68.00;;;;;;20736748;28;20096;-76
2021/10/01 12:15:18;;;;;;;0.85;0.30;;;16.70;68.00;;;;;;20721663;28;20038;-83
2021/10/01 12:25:25;;;;;;;0.63;0.30;;;16.70;68.10;;;;;;20705188;28;20069;-84
2021/10/01 12:35:25;;;;;;;0.90;0.30;;;16.70;68.10;;;;;;20736986;28;20042;-83
2021/10/01 12:45:26;;;;;;;1.23;0.40;;;16.70;68.20;;;;;;20721251;28;20065;-82
2021/10/01 12:55:32;;;;;;;2.08;0.30;;;16.70;68.20;;;;;;20717753;28;20464;-80
2021/10/01 13:05:40;;;;;;;1.60;0.40;;;16.70;68.90;;;;;;20719069;28;20495;-83
2021/10/01 13:15:40;;;;;;;3.92;0.40;;;16.70;68.40;;;;;;20718851;28;20038;-83
2021/10/01 13:25:49;;;;;;;1.45;1.30;;;16.70;68.50;;;;;;20750174;28;20137;-82
2021/10/01 13:35:51;;;;;;;0.73;0.15;;;16.70;68.50;;;;;;20733495;28;20030;-81
2021/10/01 13:45:51;;;;;;;1.88;0.40;;;16.70;68.60;;;;;;20716766;28;20041;-83
2021/10/01 13:55:52;;;;;;;2.20;0.40;;;16.70;68.60;;;;;;20746388;28;20037;-79
2021/10/01 14:05:53;;;;;;;1.88;0.90;;;16.70;68.60;;;;;;20728138;28;20354;-80
2021/10/01 14:15:53;;;;;;;0.10;0.10;;;16.70;68.60;;;;;;20714636;28;20358;-80
2021/10/01 14:25:54;;;;;;;0.73;0.22;;;16.80;68.60;;;;;;20746127;28;20371;-80
2021/10/01 14:35:56;;;;;;;0.55;0.30;;;16.80;68.60;;;;;;20712299;28;20061;-82
2021/10/01 14:45:56;;;;;;;0.57;0.30;;;16.80;68.60;;;;;;20718908;28;20040;-80
2021/10/01 14:55:57;;;;;;;0.55;0.30;;;16.90;68.60;;;;;;20727542;28;20124;-81
2021/10/01 15:05:58;;;;;;;1.13;0.40;;;16.80;68.60;;;;;;20727259;28;20457;-79
2021/10/01 15:15:58;;;;;;;0.30;0.10;;;16.90;68.60;;;;;;20724395;28;20088;-81
2021/10/01 15:25:59;;;;;;;1.38;0.52;;;16.90;68.60;;;;;;20720052;28;20121;-79
2021/10/01 15:35:59;;;;;;;2.33;0.22;;;16.90;68.50;;;;;;20721317;28;20044;-79
2021/10/01 15:46:00;;;;;;;0.35;0.10;;;16.90;68.50;;;;;;20719708;28;20069;-78
2021/10/01 15:56:01;;;;;;;1.38;0.50;;;17.00;68.50;;;;;;20703186;28;20038;-79
2021/10/01 16:06:01;;;;;;;5.00;0.40;;;17.00;68.50;;;;;;20702860;28;20480;-81
2021/10/01 16:16:02;;;;;;;1.05;0.47;;;17.00;68.50;;;;;;20732875;28;20128;-77
2021/10/01 16:26:08;;;;;;;1.10;0.43;;;17.00;68.50;;;;;;20732287;28;20053;-79
2021/10/01 16:36:09;;;;;;;1.80;0.30;;;16.90;68.60;;;;;;20660609;28;20041;-78
2021/10/01 16:46:09;;;;;;;1.88;0.50;;;16.90;69.30;;;;;;20621212;28;20038;-81
2021/10/01 16:56:10;;;;;;;3.50;0.73;;;16.90;68.70;;;;;;20636219;28;20117;-80
2021/10/01 17:06:11;;;;;;;2.88;0.43;;;16.90;68.80;;;;;;20635203;28;20037;-80
2021/10/01 17:16:12;;;;;;;1.48;0.68;;;16.90;68.90;;;;;;20634029;28;20098;-78
2021/10/01 17:26:13;;;;;;;0.95;0.30;;;16.90;68.90;;;;;;20646633;28;20033;-80
2021/10/01 17:36:14;;;;;;;0.98;0.50;;;16.80;68.80;;;;;;20665666;28;20125;-79
2021/10/01 17:46:14;;;;;;;3.08;0.73;;;16.80;68.90;;;;;;20656192;28;20029;-75
2021/10/01 17:56:16;;;;;;;0.45;0.20;;;16.90;69.00;;;;;;20687455;28;20092;-75
2021/10/01 18:06:16;;;;;;;1.35;0.40;;;16.80;68.90;;;;;;20690582;28;20088;-81
2021/10/01 18:16:18;;;;;;;0.47;0.30;;;16.80;68.90;;;;;;20723680;28;20481;-78
2021/10/01 18:26:19;;;;;;;0.77;0.40;;;16.80;68.90;;;;;;20742785;28;20038;-80
2021/10/01 18:36:19;;;;;;;0.65;0.40;;;16.80;68.90;;;;;;20745251;28;20072;-81
2021/10/01 18:46:20;;;;;;;2.60;0.40;;;16.80;68.90;;;;;;20727146;28;20267;-77
2021/10/01 18:56:20;;;;;;;1.23;0.50;;;16.70;68.80;;;;;;20737987;28;20052;-78
2021/10/01 19:06:21;;;;;;;0.82;0.20;;;16.80;68.80;;;;;;20720779;28;20519;-76
2021/10/01 19:16:21;;;;;;;0.20;0.20;;;16.80;68.90;;;;;;20705024;28;20125;-78
2021/10/01 19:36:23;;;;;;;0.20;0.20;;;16.80;68.80;;;;;;20751657;28;20116;-76
2021/10/01 19:46:25;;;;;;;0.77;0.40;;;16.70;68.80;;;;;;20730867;28;20454;-77
2021/10/01 19:56:27;;;;;;;1.65;0.40;;;16.70;68.70;;;;;;20749076;28;20038;-76
2021/10/01 20:06:27;;;;;;;0.68;0.30;;;16.70;68.70;;;;;;20732551;28;20091;-76
2021/10/01 20:16:29;;;;;;;0.55;0.35;;;16.70;68.70;;;;;;20746337;28;20034;-75
2021/10/01 20:47:08;;;;;;;1.42;0.40;;;16.70;68.70;;;;;;20731163;28;20032;-75
2021/10/01 21:38:45;;;;;;;0.63;0.22;;;16.70;68.70;;;;;;20735300;28;20169;-80
2021/10/01 21:48:45;;;;;;;0.82;0.45;;;16.70;68.80;;;;;;20747602;28;20388;-80
2021/10/01 21:58:46;;;;;;;0.30;0.30;;;16.70;68.80;;;;;;20746237;28;20120;-79
2021/10/01 22:08:59;;;;;;;0.88;0.52;;;16.70;68.80;;;;;;20730924;28;20030;-80
2021/10/01 22:29:19;;;;;;;0.43;0.38;;;16.70;68.70;;;;;;20731780;28;20100;-80
2021/10/01 22:39:22;;;;;;;0.80;0.50;;;16.70;68.80;;;;;;20730129;28;20042;-81
2021/10/01 22:49:22;;;;;;;0.63;0.45;;;16.70;68.80;;;;;;20744889;28;20030;-80
2021/10/01 22:59:23;;;;;;;0.52;0.40;;;16.70;68.80;;;;;;20729156;28;20037;-80
2021/10/01 23:09:25;;;;;;;0.52;0.38;;;16.70;68.80;;;;;;20721623;28;20088;-80
2021/10/01 23:50:53;;;;;;;0.88;0.60;;;16.70;68.80;;;;;;20730188;28;20096;-80
